METAR Data
IDs: Format: Raw Decoded Include TAF

Data at: 1303 UTC 24 May 2022

EDDK 241250Z AUTO 26011KT 9999 FEW045 17/08 Q1008 NOSIG